METAR / TAF

Buochs LSZC 181950Z AUTO VRB02KT 9999 -RA FEW045 BKN050 13/12 Q1015

TAF LSZC 171905Z 1719/1724 CNL


Alpnach AFB LSMA 181950Z AUTO 02003KT 320V070 9999NDV +RA FEW023 OVC048 13/11 Q1015

TAF LSMA 181625Z 1817/1923 05005KT 9999 FEW065 SCT130 PROB40 TEMPO 1817/1823 27010KT SHRA SCT050TCU PROB30 TEMPO 1817/1818 20018G30KT 4500 TSRA SCT040CB PROB30 1905/1909 CAVOK PROB30 TEMPO 1914/1918 SHRA FEW070TCU


Emmen AFB LSME 181950Z AUTO 00000KT 9999NDV -SHRA BKN062 OVC080 12/11 Q1014

TAF LSME 181625Z 1817/1923 32005KT 9999 FEW070 PROB40 TEMPO 1817/1822 27010KT SHRA SCT050TCU PROB30 TEMPO 1817/1818 27018G30KT 4500 TSRA SCT040CB PROB40 1900/1906 6000 MIFG PROB30 1906/1909 CAVOK PROB30 TEMPO 1914/1917 SHRA FEW070TCU


Bern LSZB 181950Z AUTO 14007KT 9999 FEW009 BKN050 12/11 Q1014

TAF LSZB 181425Z 1815/1824 VRB02KT 9999 FEW070 SCT090 BKN110 TEMPO 1815/1820 29012KT SHRA SCT040TCU PROB30 TEMPO 1815/1820 28015G25KT 4500 TSRA SCT040CB


Grenchen LSZG 181950Z AUTO 34003KT 9999 FEW070 12/12 Q1013

TAF LSZG 181905Z 1819/1824 CNL


Zurich LSZH 181950Z 16003KT 9999 FEW050 12/11 Q1014 TEMPO SHRA

TAF LSZH 181725Z 1818/1924 30010KT 9999 FEW050 SCT070 TX22/1915Z TN09/1904Z TEMPO 1818/1822 SHRA SCT050TCU PROB30 TEMPO 1818/1820 28015G25KT 4500 TSRA SCT040CB BECMG 1820/1822 VRB02KT PROB40 1902/1906 6000 MIFG NSC PROB30 1903/1906 3000 BCFG TEMPO 1906/1912 CAVOK PROB30 TEMPO 1912/1917 31008KT


Bale LFSB 181930Z AUTO 13003KT 9999 FEW034/// SCT076/// BKN094/// ///TCU 14/12 Q1013 BECMG NSC

TAF LFSB 181700Z 1818/1918 18005KT CAVOK PROB40 TEMPO 1818/1820 VRB10KT -SHRA FEW030CB BECMG 1908/1911 28012KT PROB40 TEMPO 1912/1915 FEW040CB


Les Eplatures LSGC 181950Z AUTO 22003KT 200V260 9999 FEW015 SCT024 09/09 Q1014

TAF LSGC 181905Z 1819/1824 CNL


Geneva LSGG 181950Z AUTO 22004KT CAVOK 15/09 Q1013 NOSIG

TAF LSGG 181725Z 1818/1924 VRB02KT 9999 FEW050 TX21/1915Z TN08/1905Z PROB30 TEMPO 1818/1821 23010KT SHRA SCT035TCU PROB40 1911/1919 SHRA SCT030TCU


Sion LSGS 181950Z AUTO 28004KT 240V310 9999 FEW085 SCT095 BKN100 14/10 Q1013

TAF LSGS 181905Z 1819/1824 CNL


Payerne AFB LSMP 181950Z AUTO VRB01KT 9999NDV FEW051 13/11 Q1013

TAF LSMP 181625Z 1817/1923 21007KT 9999 FEW050 TEMPO 1817/1819 SHRA FEW040TCU PROB30 TEMPO 1912/1919 SHRA SCT040TCU


Lugano LSZA 181950Z AUTO VRB03KT 9999 FEW075 OVC090 //////TCU 14/12 Q1014

TAF LSZA 181905Z 1819/1824 CNL


Locarno LSZL 181950Z AUTO 07002KT 9999NDV BKN100 14/13 Q1014

TAF LSZL 181725Z 1818/1903 06005KT 9999 BKN095 PROB30 TEMPO 1900/1903 SHRA


St. Gallen LSZR 181950Z AUTO 26009KT 6000 RA FEW016 BKN041TCU BKN055 14/11 Q1014

TAF LSZR 181905Z 1819/1824 CNL


Samedan LSZS 181950Z AUTO 21005KT 9999 FEW043 SCT050 07/03 Q1015

TAF LSZS 181905Z 1819/1824 CNL

Radar

Föhn diagram

From an air pressure difference of approx. 4 hPa (dashed line) between the northern and southern Alps, Föhn can occur. The higher the pressure difference, the more violent the Föhn!

Forecast

Privacy Settings
We use cookies to enhance your experience while using our website. If you are using our Services via a browser you can restrict, block or remove cookies through your web browser settings. We also use content and scripts from third parties that may use tracking technologies. You can selectively provide your consent below to allow such third party embeds. For complete information about the cookies we use, data we collect and how we process them, please check our Privacy Policy
Youtube
Consent to display content from - Youtube
Vimeo
Consent to display content from - Vimeo
Google Maps
Consent to display content from - Google